Time;durP1;ratioP1;P1;durP2;ratioP2;P2;SDS_P1;SDS_P2;PMS_P1;PMS_P2;Temp;Humidity;BMP_temperature;BMP_pressure;BME280_temperature;BME280_humidity;BME280_pressure;Samples;Min_cycle;Max_cycle;Signal;HPM_P1;HPM_P2
2021/12/24 00:02:34;;;;;;;25.88;12.65;;;;;;;;;;6215468;28;21120;-66
2021/12/24 00:05:35;;;;;;;27.98;12.75;;;;;;;;;;6214763;28;20092;-64
2021/12/24 00:08:37;;;;;;;29.75;12.82;;;;;;;;;;6217274;28;20125;-68
2021/12/24 00:11:37;;;;;;;28.75;12.25;;;;;;;;;;6218012;28;20052;-69
2021/12/24 00:14:42;;;;;;;27.67;12.52;;;;;;;;;;6216589;28;20038;-68
2021/12/24 00:17:43;;;;;;;23.10;11.13;;;;;;;;;;6217547;28;20038;-67
2021/12/24 00:37:19;;;;;;;20.13;9.95;;;;;;;;;;6218064;28;20148;-66
2021/12/24 00:40:21;;;;;;;21.02;9.95;;;;;;;;;;6214916;28;20046;-67
2021/12/24 00:43:22;;;;;;;20.13;9.85;;;;;;;;;;6216986;28;20065;-70
2021/12/24 00:46:22;;;;;;;20.67;9.95;;;;;;;;;;6218360;28;20133;-67
2021/12/24 00:49:23;;;;;;;20.65;9.88;;;;;;;;;;6211554;28;20099;-64
2021/12/24 00:55:33;;;;;;;19.35;9.48;;;;;;;;;;6215795;28;20038;-68
2021/12/24 00:58:34;;;;;;;19.88;9.40;;;;;;;;;;6218426;28;20417;-69
2021/12/24 01:01:35;;;;;;;22.03;10.40;;;;;;;;;;6216711;28;20066;-64
2021/12/24 01:04:35;;;;;;;18.00;9.57;;;;;;;;;;6219134;28;20412;-68
2021/12/24 01:07:36;;;;;;;21.00;9.52;;;;;;;;;;6217616;28;20754;-70
2021/12/24 01:10:44;;;;;;;20.60;9.68;;;;;;;;;;6199845;28;20062;-64
2021/12/24 01:13:45;;;;;;;18.20;10.02;;;;;;;;;;6202272;28;20141;-69
2021/12/24 01:16:56;;;;;;;20.65;10.20;;;;;;;;;;6207482;28;20046;-64
2021/12/24 01:20:03;;;;;;;18.85;9.65;;;;;;;;;;6205312;28;20046;-64
2021/12/24 01:26:43;;;;;;;20.65;10.20;;;;;;;;;;6199188;28;20470;-68
2021/12/24 01:30:09;;;;;;;19.08;9.82;;;;;;;;;;6198368;28;20744;-64
2021/12/24 01:42:51;;;;;;;22.40;9.73;;;;;;;;;;6206321;28;20057;-64
2021/12/24 01:45:54;;;;;;;18.25;9.77;;;;;;;;;;6198393;28;20057;-69
2021/12/24 01:48:55;;;;;;;21.75;9.68;;;;;;;;;;6202400;28;20057;-64
2021/12/24 01:51:57;;;;;;;18.73;9.52;;;;;;;;;;6203630;28;20655;-67
2021/12/24 01:54:57;;;;;;;19.15;10.20;;;;;;;;;;6204544;28;20586;-64
2021/12/24 01:57:58;;;;;;;21.30;9.57;;;;;;;;;;6201720;28;20054;-67
2021/12/24 02:00:59;;;;;;;18.55;10.00;;;;;;;;;;6200705;28;20140;-69
2021/12/24 02:04:00;;;;;;;19.73;10.25;;;;;;;;;;6208197;28;20077;-64
2021/12/24 02:07:01;;;;;;;18.00;9.48;;;;;;;;;;6203088;28;20497;-70
2021/12/24 02:10:07;;;;;;;17.30;10.05;;;;;;;;;;6203191;28;20505;-68
2021/12/24 02:13:08;;;;;;;18.50;9.20;;;;;;;;;;6199027;28;20054;-70
2021/12/24 02:16:24;;;;;;;19.60;10.05;;;;;;;;;;6200168;28;20050;-64
2021/12/24 02:29:25;;;;;;;18.10;10.90;;;;;;;;;;6207784;28;20077;-65
2021/12/24 02:32:26;;;;;;;20.65;9.70;;;;;;;;;;6203267;28;20085;-65
2021/12/24 02:35:27;;;;;;;19.58;10.07;;;;;;;;;;6206631;28;20088;-67
2021/12/24 02:38:28;;;;;;;16.65;9.35;;;;;;;;;;6202391;28;20129;-64
2021/12/24 02:41:29;;;;;;;19.45;9.65;;;;;;;;;;6204748;28;20070;-64
2021/12/24 02:44:29;;;;;;;19.92;10.05;;;;;;;;;;6200680;28;20060;-68
2021/12/24 02:54:24;;;;;;;17.42;9.45;;;;;;;;;;6206107;28;20038;-65
2021/12/24 02:57:28;;;;;;;19.92;10.13;;;;;;;;;;6203227;28;20424;-69
2021/12/24 03:00:29;;;;;;;20.52;9.95;;;;;;;;;;6203542;28;20485;-66
2021/12/24 03:03:30;;;;;;;20.20;10.43;;;;;;;;;;6212627;28;20104;-69
2021/12/24 03:06:34;;;;;;;18.77;10.48;;;;;;;;;;6221721;28;20049;-64
2021/12/24 03:09:34;;;;;;;17.23;9.90;;;;;;;;;;6206810;28;20065;-64
2021/12/24 03:12:35;;;;;;;21.77;10.20;;;;;;;;;;6201477;28;20049;-68
2021/12/24 03:15:38;;;;;;;21.45;10.73;;;;;;;;;;6208758;28;20049;-66
2021/12/24 03:18:41;;;;;;;16.88;9.82;;;;;;;;;;6204006;28;20069;-66
2021/12/24 03:21:57;;;;;;;18.15;9.50;;;;;;;;;;6212412;28;20420;-67
2021/12/24 03:24:58;;;;;;;18.85;10.13;;;;;;;;;;6204236;28;20058;-65
2021/12/24 03:27:59;;;;;;;18.40;10.05;;;;;;;;;;6204464;28;20049;-65
2021/12/24 03:31:00;;;;;;;18.52;10.20;;;;;;;;;;6200068;28;20057;-70
2021/12/24 03:34:01;;;;;;;19.92;10.57;;;;;;;;;;6213026;28;20081;-67
2021/12/24 03:37:04;;;;;;;19.23;8.85;;;;;;;;;;6219633;28;20046;-70
2021/12/24 03:40:05;;;;;;;19.40;10.10;;;;;;;;;;6221704;28;20054;-67
2021/12/24 03:43:06;;;;;;;20.13;10.53;;;;;;;;;;6220288;28;20155;-68
2021/12/24 03:46:12;;;;;;;19.52;10.48;;;;;;;;;;6219242;28;20061;-68
2021/12/24 03:49:29;;;;;;;21.35;10.73;;;;;;;;;;6219925;28;20054;-65
2021/12/24 03:55:31;;;;;;;21.73;10.95;;;;;;;;;;6220842;28;20125;-69
2021/12/24 03:58:31;;;;;;;21.15;10.82;;;;;;;;;;6219337;28;20073;-69
2021/12/24 04:01:33;;;;;;;22.00;11.13;;;;;;;;;;6211662;28;20081;-65
2021/12/24 04:04:33;;;;;;;23.10;11.60;;;;;;;;;;6220656;28;20058;-64
2021/12/24 04:07:34;;;;;;;20.77;11.10;;;;;;;;;;6218008;28;20504;-69
2021/12/24 04:10:41;;;;;;;24.70;12.60;;;;;;;;;;6218356;28;20046;-63
2021/12/24 04:13:42;;;;;;;21.25;10.57;;;;;;;;;;6212929;28;20148;-67
2021/12/24 04:16:42;;;;;;;24.65;11.75;;;;;;;;;;6218110;28;20877;-69
2021/12/24 04:26:22;;;;;;;24.00;11.15;;;;;;;;;;6220066;28;20058;-69
2021/12/24 04:29:22;;;;;;;22.83;11.57;;;;;;;;;;6216276;28;20140;-69
2021/12/24 04:32:33;;;;;;;20.10;11.13;;;;;;;;;;6219978;28;20093;-68
2021/12/24 04:35:47;;;;;;;21.98;11.75;;;;;;;;;;6220796;28;20050;-63
2021/12/24 04:52:26;;;;;;;24.05;12.50;;;;;;;;;;6207052;28;20046;-63
2021/12/24 05:05:38;;;;;;;26.10;12.70;;;;;;;;;;6205459;28;20050;-68
2021/12/24 05:08:40;;;;;;;26.77;13.05;;;;;;;;;;6199153;28;20414;-68
2021/12/24 05:11:41;;;;;;;26.00;12.68;;;;;;;;;;6204987;28;20057;-64
2021/12/24 05:14:41;;;;;;;27.08;13.40;;;;;;;;;;6199692;28;20935;-67
2021/12/24 05:18:03;;;;;;;26.15;13.13;;;;;;;;;;6201954;28;20053;-67
2021/12/24 05:24:36;;;;;;;23.80;12.70;;;;;;;;;;6211116;28;20069;-67
2021/12/24 05:27:37;;;;;;;27.55;12.73;;;;;;;;;;6201510;28;20054;-67
2021/12/24 05:30:38;;;;;;;27.30;13.15;;;;;;;;;;6206367;28;20043;-69
2021/12/24 05:33:39;;;;;;;24.27;12.85;;;;;;;;;;6201454;28;20050;-63
2021/12/24 05:36:41;;;;;;;26.00;12.77;;;;;;;;;;6202223;28;20054;-67
2021/12/24 05:39:41;;;;;;;29.83;13.95;;;;;;;;;;6203644;28;20057;-67
2021/12/24 05:42:42;;;;;;;25.02;12.82;;;;;;;;;;6201281;28;20041;-63
2021/12/24 05:45:42;;;;;;;28.67;13.50;;;;;;;;;;6207184;28;20044;-69
2021/12/24 05:48:43;;;;;;;29.15;14.38;;;;;;;;;;6205491;28;20481;-68
2021/12/24 05:51:44;;;;;;;27.45;14.02;;;;;;;;;;6203922;28;20052;-65
2021/12/24 05:54:45;;;;;;;29.10;14.50;;;;;;;;;;6209536;28;20136;-64
2021/12/24 05:57:45;;;;;;;28.42;14.43;;;;;;;;;;6207417;28;20149;-66
2021/12/24 06:00:48;;;;;;;26.85;13.68;;;;;;;;;;6202164;28;20046;-69
2021/12/24 06:03:48;;;;;;;29.10;13.23;;;;;;;;;;6198539;28;20894;-66
2021/12/24 06:06:49;;;;;;;30.08;14.73;;;;;;;;;;6204493;28;20042;-69
2021/12/24 06:09:49;;;;;;;30.40;14.32;;;;;;;;;;6203921;28;20129;-65
2021/12/24 06:12:50;;;;;;;27.77;14.13;;;;;;;;;;6205286;28;20043;-67
2021/12/24 06:15:52;;;;;;;29.58;14.85;;;;;;;;;;6204241;28;20057;-63
2021/12/24 06:18:54;;;;;;;30.67;13.87;;;;;;;;;;6201970;28;20137;-64
2021/12/24 06:21:56;;;;;;;27.13;13.65;;;;;;;;;;6200811;28;20358;-68
2021/12/24 06:24:56;;;;;;;26.77;13.50;;;;;;;;;;6199095;28;20057;-63
2021/12/24 06:27:57;;;;;;;28.48;13.63;;;;;;;;;;6203501;28;20058;-63
2021/12/24 06:30:58;;;;;;;31.75;14.07;;;;;;;;;;6200978;28;20057;-70
2021/12/24 06:33:59;;;;;;;27.45;13.15;;;;;;;;;;6204508;28;20136;-63
2021/12/24 06:37:00;;;;;;;27.88;13.82;;;;;;;;;;6199241;28;20042;-66
2021/12/24 06:40:01;;;;;;;26.52;13.40;;;;;;;;;;6206700;28;20481;-69
2021/12/24 06:43:03;;;;;;;26.65;13.05;;;;;;;;;;6203498;28;20050;-67
2021/12/24 06:46:10;;;;;;;26.50;13.50;;;;;;;;;;6207335;28;20091;-70
2021/12/24 06:49:12;;;;;;;28.70;14.50;;;;;;;;;;6208307;28;20597;-70
2021/12/24 06:52:12;;;;;;;36.72;18.27;;;;;;;;;;6215016;28;20042;-68
2021/12/24 06:55:13;;;;;;;28.00;14.30;;;;;;;;;;6215328;28;20058;-68
2021/12/24 06:58:14;;;;;;;27.63;14.07;;;;;;;;;;6215189;28;20057;-69
2021/12/24 07:01:16;;;;;;;28.98;14.30;;;;;;;;;;6209633;28;20042;-69
2021/12/24 07:04:16;;;;;;;28.52;13.70;;;;;;;;;;6207288;28;20054;-65
2021/12/24 07:07:17;;;;;;;28.17;13.85;;;;;;;;;;6213130;28;20054;-66
2021/12/24 07:10:17;;;;;;;25.30;13.63;;;;;;;;;;6212513;28;20776;-68
2021/12/24 07:13:18;;;;;;;27.63;14.18;;;;;;;;;;6206079;28;20394;-73
2021/12/24 07:16:19;;;;;;;28.48;13.70;;;;;;;;;;6212275;28;20489;-65
2021/12/24 07:19:20;;;;;;;28.35;14.15;;;;;;;;;;6216546;28;20052;-67
2021/12/24 07:22:20;;;;;;;31.95;17.08;;;;;;;;;;6197249;28;20508;-67
2021/12/24 07:25:21;;;;;;;28.70;14.20;;;;;;;;;;6198957;28;20034;-68
2021/12/24 07:28:22;;;;;;;31.90;14.00;;;;;;;;;;6206279;28;20233;-70
2021/12/24 07:31:23;;;;;;;26.10;13.60;;;;;;;;;;6206433;28;20058;-68
2021/12/24 07:34:24;;;;;;;28.47;14.43;;;;;;;;;;6199722;28;20474;-64
2021/12/24 07:37:25;;;;;;;28.92;13.82;;;;;;;;;;6201816;28;20042;-65
2021/12/24 07:40:26;;;;;;;27.70;13.95;;;;;;;;;;6204722;28;20488;-64
2021/12/24 07:43:27;;;;;;;28.05;15.48;;;;;;;;;;6197579;28;20093;-71
2021/12/24 07:46:35;;;;;;;29.45;14.35;;;;;;;;;;6208717;28;20046;-67
2021/12/24 07:49:41;;;;;;;27.10;13.32;;;;;;;;;;6216061;28;20061;-65
2021/12/24 07:52:42;;;;;;;28.55;13.82;;;;;;;;;;6216626;28;20045;-64
2021/12/24 07:55:43;;;;;;;26.70;12.85;;;;;;;;;;6216584;28;20552;-64
2021/12/24 07:58:43;;;;;;;28.90;14.95;;;;;;;;;;6215580;28;20046;-64
2021/12/24 08:01:46;;;;;;;26.02;14.05;;;;;;;;;;6216537;28;20053;-63
2021/12/24 08:04:46;;;;;;;31.83;16.48;;;;;;;;;;6220891;28;20046;-63
2021/12/24 08:07:47;;;;;;;29.55;14.35;;;;;;;;;;6211619;28;20409;-63
2021/12/24 08:10:48;;;;;;;27.80;13.55;;;;;;;;;;6202514;28;20047;-67
2021/12/24 08:13:48;;;;;;;24.92;12.55;;;;;;;;;;6217428;28;20048;-62
2021/12/24 08:16:49;;;;;;;27.67;13.48;;;;;;;;;;6218154;28;20137;-66
2021/12/24 08:19:50;;;;;;;24.45;13.65;;;;;;;;;;6219158;28;20053;-62
2021/12/24 08:22:55;;;;;;;26.70;12.85;;;;;;;;;;6210914;28;20054;-68
2021/12/24 08:25:59;;;;;;;25.98;13.27;;;;;;;;;;6198413;28;20461;-63
2021/12/24 08:28:59;;;;;;;29.10;13.63;;;;;;;;;;6199159;28;20420;-62
2021/12/24 08:32:03;;;;;;;25.83;13.73;;;;;;;;;;6197165;28;20104;-71
2021/12/24 08:35:06;;;;;;;28.45;14.52;;;;;;;;;;6214312;28;20045;-62
2021/12/24 08:38:06;;;;;;;27.08;12.93;;;;;;;;;;6217084;28;20067;-62
2021/12/24 08:41:07;;;;;;;24.92;12.77;;;;;;;;;;6219445;28;20049;-63
2021/12/24 08:44:09;;;;;;;30.90;13.90;;;;;;;;;;6216413;28;20054;-64
2021/12/24 08:47:09;;;;;;;32.40;14.35;;;;;;;;;;6212136;28;20429;-63
2021/12/24 08:50:13;;;;;;;29.45;14.68;;;;;;;;;;6218038;28;20069;-69
2021/12/24 08:53:13;;;;;;;28.52;13.80;;;;;;;;;;6216957;28;20076;-63
2021/12/24 08:56:14;;;;;;;25.70;13.40;;;;;;;;;;6218721;28;20054;-62
2021/12/24 08:59:15;;;;;;;31.25;15.00;;;;;;;;;;6207345;28;20050;-63
2021/12/24 09:02:16;;;;;;;28.38;14.13;;;;;;;;;;6216953;28;20041;-63
2021/12/24 09:05:17;;;;;;;28.42;15.07;;;;;;;;;;6218867;28;20428;-63
2021/12/24 09:08:17;;;;;;;32.53;16.75;;;;;;;;;;6212258;28;20050;-63
2021/12/24 09:11:18;;;;;;;28.08;14.43;;;;;;;;;;6203577;28;20638;-69
2021/12/24 09:14:19;;;;;;;29.73;15.25;;;;;;;;;;6201561;28;20553;-62
2021/12/24 09:17:21;;;;;;;32.10;15.80;;;;;;;;;;6200452;28;20046;-62
2021/12/24 09:20:27;;;;;;;31.15;16.15;;;;;;;;;;6200836;28;20133;-64
2021/12/24 09:23:28;;;;;;;28.85;14.98;;;;;;;;;;6212641;28;20049;-61
2021/12/24 09:26:32;;;;;;;29.88;15.25;;;;;;;;;;6208858;28;20100;-62
2021/12/24 09:29:33;;;;;;;47.35;26.33;;;;;;;;;;6213722;28;20148;-62
2021/12/24 09:32:33;;;;;;;36.33;19.80;;;;;;;;;;6216812;28;20038;-67
2021/12/24 09:35:34;;;;;;;29.08;15.60;;;;;;;;;;6208874;28;20510;-67
2021/12/24 09:38:35;;;;;;;31.30;15.98;;;;;;;;;;6212407;28;20077;-61
2021/12/24 09:41:35;;;;;;;32.50;16.30;;;;;;;;;;6199846;28;20045;-61
2021/12/24 09:44:36;;;;;;;32.65;17.45;;;;;;;;;;6213231;28;20081;-62
2021/12/24 09:47:38;;;;;;;30.20;15.93;;;;;;;;;;6207086;28;20045;-63
2021/12/24 09:50:39;;;;;;;37.47;18.05;;;;;;;;;;6202620;28;20082;-61
2021/12/24 09:53:40;;;;;;;35.22;19.08;;;;;;;;;;6211592;28;20069;-62
2021/12/24 09:56:41;;;;;;;38.03;19.23;;;;;;;;;;6210697;28;20680;-59
2021/12/24 09:59:41;;;;;;;35.92;21.48;;;;;;;;;;6216430;28;20057;-58
2021/12/24 10:02:46;;;;;;;31.60;16.08;;;;;;;;;;6215022;28;20470;-58
2021/12/24 10:05:47;;;;;;;70.47;36.78;;;;;;;;;;6215700;28;20045;-63
2021/12/24 10:08:59;;;;;;;38.92;19.15;;;;;;;;;;6216030;28;20053;-59
2021/12/24 10:12:06;;;;;;;32.10;15.18;;;;;;;;;;6203528;28;20541;-62
2021/12/24 10:15:07;;;;;;;32.40;16.52;;;;;;;;;;6205474;28;20099;-62
2021/12/24 10:18:27;;;;;;;31.70;15.77;;;;;;;;;;6208361;28;20390;-61
2021/12/24 10:21:30;;;;;;;27.58;16.48;;;;;;;;;;6208366;28;20056;-61
2021/12/24 10:24:31;;;;;;;33.85;16.42;;;;;;;;;;6210327;28;20521;-61
2021/12/24 10:27:34;;;;;;;35.45;18.48;;;;;;;;;;6213679;28;20049;-62
2021/12/24 10:30:34;;;;;;;33.67;19.20;;;;;;;;;;6213683;28;20045;-61
2021/12/24 10:33:35;;;;;;;32.45;16.27;;;;;;;;;;6211340;28;20092;-63
2021/12/24 10:36:58;;;;;;;30.70;17.15;;;;;;;;;;6210442;28;20052;-63
2021/12/24 10:40:01;;;;;;;34.45;18.20;;;;;;;;;;6204010;28;20057;-68
2021/12/24 10:43:02;;;;;;;29.33;15.68;;;;;;;;;;6210033;28;20041;-65
2021/12/24 10:46:12;;;;;;;33.97;17.67;;;;;;;;;;6201080;28;20050;-63
2021/12/24 10:49:27;;;;;;;30.63;16.65;;;;;;;;;;6210997;28;20058;-62
2021/12/24 10:52:46;;;;;;;30.23;16.48;;;;;;;;;;6203800;28;20497;-60
2021/12/24 10:55:52;;;;;;;32.22;16.50;;;;;;;;;;6214339;28;20045;-60
2021/12/24 10:58:52;;;;;;;29.45;16.45;;;;;;;;;;6209497;28;20065;-61
2021/12/24 11:02:09;;;;;;;30.48;14.57;;;;;;;;;;6208430;28;20729;-62
2021/12/24 11:05:34;;;;;;;29.05;14.40;;;;;;;;;;6214246;28;20052;-61
2021/12/24 11:08:35;;;;;;;26.45;14.02;;;;;;;;;;6200842;28;20057;-64
2021/12/24 11:11:36;;;;;;;37.00;17.58;;;;;;;;;;6211926;28;20472;-64
2021/12/24 11:14:37;;;;;;;29.92;16.25;;;;;;;;;;6211971;28;20049;-69
2021/12/24 11:17:38;;;;;;;31.40;15.63;;;;;;;;;;6208286;28;20045;-67
2021/12/24 11:20:39;;;;;;;33.47;17.40;;;;;;;;;;6209050;28;20045;-63
2021/12/24 11:23:41;;;;;;;28.38;15.45;;;;;;;;;;6212533;28;20077;-61
2021/12/24 11:26:50;;;;;;;32.50;16.87;;;;;;;;;;6213414;28;20046;-63
2021/12/24 11:29:51;;;;;;;28.63;16.13;;;;;;;;;;6220044;28;20057;-66
2021/12/24 11:32:52;;;;;;;39.58;19.15;;;;;;;;;;6218633;28;20065;-64
2021/12/24 11:35:55;;;;;;;28.90;15.52;;;;;;;;;;6216756;28;20045;-65
2021/12/24 11:38:56;;;;;;;;;;;;;;;;;;6212260;28;20049;-62
2021/12/24 11:42:00;;;;;;;25.93;14.47;;;;;;;;;;6211095;28;19921;-70
2021/12/24 11:45:01;;;;;;;25.90;13.25;;;;;;;;;;6214844;28;20046;-66
2021/12/24 11:48:02;;;;;;;30.25;15.40;;;;;;;;;;6203985;28;20433;-62
2021/12/24 11:51:09;;;;;;;29.23;14.90;;;;;;;;;;6210485;28;20568;-65
2021/12/24 11:54:13;;;;;;;27.80;14.65;;;;;;;;;;6207900;28;20401;-64
2021/12/24 11:57:20;;;;;;;31.23;15.02;;;;;;;;;;6208148;28;20136;-65
2021/12/24 12:00:24;;;;;;;29.23;15.07;;;;;;;;;;6209260;28;20060;-64
2021/12/24 12:03:45;;;;;;;31.73;15.18;;;;;;;;;;6209518;28;20053;-63
2021/12/24 12:06:46;;;;;;;28.65;14.88;;;;;;;;;;6208502;28;20408;-63
2021/12/24 12:09:47;;;;;;;33.95;17.83;;;;;;;;;;6210969;28;20049;-65
2021/12/24 12:12:48;;;;;;;30.33;15.25;;;;;;;;;;6210151;28;20045;-64
2021/12/24 12:15:57;;;;;;;30.15;16.13;;;;;;;;;;6207117;28;20858;-71
2021/12/24 12:25:42;;;;;;;42.88;28.58;;;;;;;;;;6208437;28;20065;-67
2021/12/24 12:29:16;;;;;;;31.08;17.48;;;;;;;;;;6207455;28;20056;-63
2021/12/24 12:32:26;;;;;;;28.52;15.57;;;;;;;;;;6208128;28;20066;-69
2021/12/24 12:35:54;;;;;;;32.20;15.05;;;;;;;;;;6214444;28;20053;-68
2021/12/24 12:38:57;;;;;;;24.67;14.27;;;;;;;;;;6209761;28;20072;-68
2021/12/24 12:41:58;;;;;;;29.38;16.90;;;;;;;;;;6200512;28;20514;-64
2021/12/24 12:44:59;;;;;;;27.33;12.77;;;;;;;;;;6209990;28;20049;-65
2021/12/24 12:48:04;;;;;;;25.27;14.63;;;;;;;;;;6200622;28;20310;-65
2021/12/24 12:51:05;;;;;;;28.25;14.75;;;;;;;;;;6201218;28;20054;-67
2021/12/24 12:54:31;;;;;;;24.77;13.15;;;;;;;;;;6201935;28;20770;-64
2021/12/24 12:57:38;;;;;;;24.33;13.52;;;;;;;;;;6200272;28;20497;-65
2021/12/24 13:00:38;;;;;;;22.45;11.15;;;;;;;;;;6203794;28;20046;-67
2021/12/24 13:03:57;;;;;;;24.00;11.82;;;;;;;;;;6200256;28;20042;-68
2021/12/24 13:06:58;;;;;;;22.00;10.77;;;;;;;;;;6201059;28;20050;-66
2021/12/24 13:10:03;;;;;;;22.50;11.25;;;;;;;;;;6200497;28;20552;-67
2021/12/24 13:13:06;;;;;;;19.95;10.80;;;;;;;;;;6203162;28;20062;-64
2021/12/24 13:16:17;;;;;;;18.98;10.90;;;;;;;;;;6205573;28;20137;-65
2021/12/24 13:22:29;;;;;;;20.50;10.00;;;;;;;;;;6205814;28;20050;-66
2021/12/24 13:25:30;;;;;;;17.42;10.40;;;;;;;;;;6200563;28;20409;-64
2021/12/24 13:28:30;;;;;;;16.67;9.38;;;;;;;;;;6205557;28;20054;-66
2021/12/24 13:31:31;;;;;;;18.85;10.38;;;;;;;;;;6202064;28;20177;-65
2021/12/24 13:34:32;;;;;;;16.13;9.32;;;;;;;;;;6200038;28;20659;-65
2021/12/24 13:37:33;;;;;;;32.60;19.63;;;;;;;;;;6203781;28;20065;-66
2021/12/24 13:40:34;;;;;;;18.83;10.30;;;;;;;;;;6201563;28;20370;-65
2021/12/24 13:43:36;;;;;;;17.25;9.63;;;;;;;;;;6202510;28;20389;-69
2021/12/24 13:46:38;;;;;;;23.23;12.10;;;;;;;;;;6204495;28;20042;-64
2021/12/24 13:56:19;;;;;;;17.70;9.35;;;;;;;;;;6202262;28;20042;-67
2021/12/24 13:59:22;;;;;;;19.08;9.93;;;;;;;;;;6200560;28;20463;-64
2021/12/24 14:02:23;;;;;;;15.15;9.00;;;;;;;;;;6203433;28;20053;-66
2021/12/24 14:05:25;;;;;;;19.08;9.23;;;;;;;;;;6197270;28;20137;-64
2021/12/24 14:08:32;;;;;;;17.95;9.70;;;;;;;;;;6203230;28;20052;-67
2021/12/24 14:11:36;;;;;;;17.30;8.82;;;;;;;;;;6200409;28;20047;-66
2021/12/24 14:14:54;;;;;;;16.73;8.73;;;;;;;;;;6201532;28;20555;-65
2021/12/24 14:18:22;;;;;;;15.70;8.77;;;;;;;;;;6200889;28;20169;-65
2021/12/24 14:24:34;;;;;;;18.02;10.05;;;;;;;;;;6205115;28;20082;-64
2021/12/24 14:27:37;;;;;;;17.10;9.52;;;;;;;;;;6207187;28;20077;-64
2021/12/24 14:30:39;;;;;;;19.50;10.20;;;;;;;;;;6200498;28;20097;-67
2021/12/24 14:33:46;;;;;;;16.25;10.63;;;;;;;;;;6202198;28;20117;-64
2021/12/24 14:37:02;;;;;;;17.92;9.95;;;;;;;;;;6199342;28;20149;-66
2021/12/24 14:40:06;;;;;;;16.50;8.98;;;;;;;;;;6202397;28;20054;-64
2021/12/24 14:43:15;;;;;;;16.70;9.07;;;;;;;;;;6204647;28;20858;-66
2021/12/24 14:46:16;;;;;;;15.93;8.55;;;;;;;;;;6203516;28;20050;-65
2021/12/24 14:49:17;;;;;;;19.05;9.88;;;;;;;;;;6199500;28;20401;-64
2021/12/24 14:52:22;;;;;;;18.38;8.70;;;;;;;;;;6202347;28;20133;-64
2021/12/24 14:55:23;;;;;;;18.65;9.60;;;;;;;;;;6197336;28;20439;-66
2021/12/24 14:58:34;;;;;;;18.08;9.65;;;;;;;;;;6208221;28;20092;-65
2021/12/24 15:01:42;;;;;;;22.40;12.38;;;;;;;;;;6209732;28;20045;-67
2021/12/24 15:04:43;;;;;;;20.52;12.07;;;;;;;;;;6206848;28;20045;-65
2021/12/24 15:07:43;;;;;;;19.08;9.85;;;;;;;;;;6205861;28;20535;-67
2021/12/24 15:11:08;;;;;;;21.20;10.85;;;;;;;;;;6207158;28;20165;-65
2021/12/24 15:14:15;;;;;;;16.65;9.13;;;;;;;;;;6208054;28;20092;-65
2021/12/24 15:17:16;;;;;;;17.05;9.32;;;;;;;;;;6202896;28;20050;-64
2021/12/24 15:20:17;;;;;;;16.92;9.45;;;;;;;;;;6204132;28;20046;-65
2021/12/24 15:23:17;;;;;;;14.60;8.15;;;;;;;;;;6201443;28;20385;-64
2021/12/24 15:26:20;;;;;;;16.48;9.07;;;;;;;;;;6204149;28;20046;-63
2021/12/24 15:29:20;;;;;;;16.35;9.45;;;;;;;;;;6208169;28;20594;-67
2021/12/24 15:32:21;;;;;;;15.73;8.13;;;;;;;;;;6203431;28;20078;-65
2021/12/24 15:35:21;;;;;;;17.42;8.80;;;;;;;;;;6205160;28;20413;-66
2021/12/24 15:38:22;;;;;;;16.17;8.98;;;;;;;;;;6201921;28;20045;-67
2021/12/24 15:41:22;;;;;;;15.68;9.20;;;;;;;;;;6201056;28;20669;-66
2021/12/24 15:44:23;;;;;;;16.33;8.57;;;;;;;;;;6200210;28;20050;-65
2021/12/24 15:47:24;;;;;;;27.83;13.88;;;;;;;;;;6206461;28;20569;-67
2021/12/24 15:50:25;;;;;;;31.50;14.98;;;;;;;;;;6203759;28;20426;-66
2021/12/24 15:53:25;;;;;;;19.08;9.77;;;;;;;;;;6194291;28;20060;-64
2021/12/24 15:56:26;;;;;;;18.83;10.30;;;;;;;;;;6202773;28;20041;-68
2021/12/24 15:59:31;;;;;;;15.65;9.00;;;;;;;;;;6206651;28;20146;-63
2021/12/24 16:02:31;;;;;;;16.55;9.38;;;;;;;;;;6206905;28;20108;-65
2021/12/24 16:05:33;;;;;;;16.67;9.15;;;;;;;;;;6207354;28;20494;-65
2021/12/24 16:08:34;;;;;;;17.73;8.45;;;;;;;;;;6197717;28;20050;-66
2021/12/24 16:11:35;;;;;;;16.27;8.17;;;;;;;;;;6206484;28;20080;-63
2021/12/24 16:14:36;;;;;;;13.65;7.90;;;;;;;;;;6200908;28;20038;-68
2021/12/24 16:17:37;;;;;;;15.75;7.93;;;;;;;;;;6201759;28;20043;-68
2021/12/24 16:20:38;;;;;;;12.90;7.50;;;;;;;;;;6202698;28;20183;-65
2021/12/24 16:23:41;;;;;;;16.63;7.93;;;;;;;;;;6199683;28;20050;-69
2021/12/24 16:26:42;;;;;;;14.95;7.97;;;;;;;;;;6205078;28;20133;-65
2021/12/24 16:29:57;;;;;;;14.52;7.40;;;;;;;;;;6204296;28;20461;-66
2021/12/24 16:32:59;;;;;;;13.88;7.20;;;;;;;;;;6200387;28;20046;-67
2021/12/24 16:35:59;;;;;;;17.75;11.65;;;;;;;;;;6198187;28;20050;-65
2021/12/24 16:39:00;;;;;;;13.48;7.07;;;;;;;;;;6203426;28;20468;-68
2021/12/24 16:42:01;;;;;;;13.15;7.43;;;;;;;;;;6199725;28;20138;-68
2021/12/24 16:45:02;;;;;;;12.35;7.60;;;;;;;;;;6200941;28;20489;-66
2021/12/24 16:48:03;;;;;;;11.90;6.93;;;;;;;;;;6208413;28;20062;-68
2021/12/24 16:51:04;;;;;;;10.70;5.87;;;;;;;;;;6208633;28;20497;-66
2021/12/24 16:54:04;;;;;;;9.00;5.50;;;;;;;;;;6208397;28;20406;-67
2021/12/24 16:57:06;;;;;;;14.80;9.25;;;;;;;;;;6200141;28;20053;-65
2021/12/24 17:00:09;;;;;;;12.45;6.90;;;;;;;;;;6205672;28;20053;-66
2021/12/24 17:03:10;;;;;;;11.13;6.65;;;;;;;;;;6206580;28;20052;-65
2021/12/24 17:06:11;;;;;;;10.35;5.72;;;;;;;;;;6209659;28;20057;-65
2021/12/24 17:09:12;;;;;;;11.52;5.55;;;;;;;;;;6216570;28;20065;-64
2021/12/24 17:12:14;;;;;;;10.15;5.80;;;;;;;;;;6210474;28;20062;-64
2021/12/24 17:15:20;;;;;;;10.70;5.88;;;;;;;;;;6202401;28;20461;-64
2021/12/24 17:18:20;;;;;;;12.50;6.25;;;;;;;;;;6202126;28;20042;-66
2021/12/24 17:21:24;;;;;;;9.98;5.65;;;;;;;;;;6199396;28;20131;-64
2021/12/24 17:24:26;;;;;;;13.45;6.25;;;;;;;;;;6205408;28;20085;-62
2021/12/24 17:27:28;;;;;;;12.50;6.03;;;;;;;;;;6205063;28;20062;-66
2021/12/24 17:30:29;;;;;;;12.38;6.15;;;;;;;;;;6199997;28;20050;-64
2021/12/24 17:33:30;;;;;;;10.18;5.82;;;;;;;;;;6201137;28;20053;-64
2021/12/24 17:36:31;;;;;;;11.75;5.85;;;;;;;;;;6201258;28;20045;-63
2021/12/24 17:39:32;;;;;;;11.00;5.63;;;;;;;;;;6201064;28;20560;-64
2021/12/24 17:42:34;;;;;;;15.38;9.00;;;;;;;;;;6202583;28;20054;-61
2021/12/24 17:45:35;;;;;;;12.55;6.90;;;;;;;;;;6206239;28;20061;-62
2021/12/24 17:48:36;;;;;;;17.45;9.60;;;;;;;;;;6200711;28;20679;-61
2021/12/24 17:51:37;;;;;;;10.02;5.70;;;;;;;;;;6206555;28;20060;-65
2021/12/24 17:54:40;;;;;;;10.55;5.57;;;;;;;;;;6205235;28;20422;-66
2021/12/24 17:57:41;;;;;;;8.80;5.00;;;;;;;;;;6200633;28;20374;-66
2021/12/24 18:00:41;;;;;;;11.35;5.53;;;;;;;;;;6198915;28;20096;-67
2021/12/24 18:03:42;;;;;;;10.43;5.45;;;;;;;;;;6204278;28;20050;-67
2021/12/24 18:06:43;;;;;;;10.25;5.45;;;;;;;;;;6205856;28;20045;-69
2021/12/24 18:09:43;;;;;;;11.95;5.68;;;;;;;;;;6205267;28;20049;-65
2021/12/24 18:12:45;;;;;;;10.85;4.78;;;;;;;;;;6206917;28;20049;-63
2021/12/24 18:15:46;;;;;;;9.90;5.00;;;;;;;;;;6205017;28;20053;-63
2021/12/24 18:18:48;;;;;;;11.27;5.53;;;;;;;;;;6205369;28;20140;-63
2021/12/24 18:21:48;;;;;;;9.43;4.40;;;;;;;;;;6202663;28;20049;-64
2021/12/24 18:24:49;;;;;;;8.48;4.28;;;;;;;;;;6199640;28;20065;-66
2021/12/24 18:27:50;;;;;;;8.50;4.07;;;;;;;;;;6198831;28;20057;-66
2021/12/24 18:30:50;;;;;;;7.95;4.18;;;;;;;;;;6196528;28;20498;-63
2021/12/24 18:33:51;;;;;;;9.68;4.53;;;;;;;;;;6199344;28;20104;-65
2021/12/24 18:36:51;;;;;;;7.80;3.67;;;;;;;;;;6200327;28;20053;-63
2021/12/24 18:39:52;;;;;;;6.60;3.63;;;;;;;;;;6199032;28;20108;-64
2021/12/24 18:42:52;;;;;;;7.53;3.30;;;;;;;;;;6198427;28;20328;-64
2021/12/24 18:45:53;;;;;;;8.32;3.80;;;;;;;;;;6195513;28;20054;-65
2021/12/24 18:48:54;;;;;;;9.18;4.15;;;;;;;;;;6196982;28;20069;-63
2021/12/24 18:51:55;;;;;;;8.73;4.70;;;;;;;;;;6199794;28;20053;-63
2021/12/24 18:54:56;;;;;;;8.40;4.18;;;;;;;;;;6197471;28;20519;-62
2021/12/24 18:57:56;;;;;;;7.43;4.35;;;;;;;;;;6196612;28;20046;-62
2021/12/24 19:00:57;;;;;;;8.55;4.85;;;;;;;;;;6199715;28;20526;-62
2021/12/24 19:03:58;;;;;;;8.20;4.93;;;;;;;;;;6198452;28;20068;-65
2021/12/24 19:06:59;;;;;;;7.25;4.00;;;;;;;;;;6195684;28;20477;-65
2021/12/24 19:09:59;;;;;;;9.43;5.32;;;;;;;;;;6196065;28;20050;-66
2021/12/24 19:13:00;;;;;;;8.80;4.10;;;;;;;;;;6200763;28;20062;-64
2021/12/24 19:16:00;;;;;;;7.20;4.38;;;;;;;;;;6203512;28;20080;-65
2021/12/24 19:19:01;;;;;;;9.45;4.50;;;;;;;;;;6203946;28;20057;-63
2021/12/24 19:22:02;;;;;;;7.25;4.03;;;;;;;;;;6204083;28;20055;-65
2021/12/24 19:25:04;;;;;;;9.73;4.30;;;;;;;;;;6196330;28;20065;-63
2021/12/24 19:28:06;;;;;;;7.63;3.78;;;;;;;;;;6199174;28;20188;-64
2021/12/24 19:31:07;;;;;;;10.65;5.47;;;;;;;;;;6195926;28;20065;-63
2021/12/24 19:34:08;;;;;;;8.18;4.40;;;;;;;;;;6196979;28;20045;-62
2021/12/24 19:37:08;;;;;;;7.97;3.95;;;;;;;;;;6196887;28;20057;-61
2021/12/24 19:40:12;;;;;;;7.63;3.95;;;;;;;;;;6196326;28;20056;-64